sensor_id;sensor_type;location;lat;lon;timestamp;P1;durP1;ratioP1;P2;durP2;ratioP2
47784;SDS011;35233;55.686;37.848;2023-03-05T00:01:25;3.25;;;2.10;;
47784;SDS011;35233;55.686;37.848;2023-03-05T00:03:53;3.15;;;2.00;;
47784;SDS011;35233;55.686;37.848;2023-03-05T00:06:20;2.08;;;1.88;;
47784;SDS011;35233;55.686;37.848;2023-03-05T00:08:47;3.03;;;2.00;;
47784;SDS011;35233;55.686;37.848;2023-03-05T00:11:13;3.10;;;2.05;;
47784;SDS011;35233;55.686;37.848;2023-03-05T00:13:39;2.15;;;1.70;;
47784;SDS011;35233;55.686;37.848;2023-03-05T00:16:06;2.70;;;1.98;;
47784;SDS011;35233;55.686;37.848;2023-03-05T00:18:34;2.55;;;1.88;;
47784;SDS011;35233;55.686;37.848;2023-03-05T00:21:00;3.15;;;1.60;;
47784;SDS011;35233;55.686;37.848;2023-03-05T00:23:26;2.28;;;1.75;;
47784;SDS011;35233;55.686;37.848;2023-03-05T00:25:51;2.60;;;1.95;;
47784;SDS011;35233;55.686;37.848;2023-03-05T00:28:17;2.75;;;1.90;;
47784;SDS011;35233;55.686;37.848;2023-03-05T00:30:42;2.25;;;1.52;;
47784;SDS011;35233;55.686;37.848;2023-03-05T00:33:08;2.60;;;1.80;;
47784;SDS011;35233;55.686;37.848;2023-03-05T00:35:43;2.58;;;1.70;;
47784;SDS011;35233;55.686;37.848;2023-03-05T00:38:11;2.17;;;1.73;;
47784;SDS011;35233;55.686;37.848;2023-03-05T00:40:38;1.63;;;1.52;;
47784;SDS011;35233;55.686;37.848;2023-03-05T00:43:05;2.40;;;1.70;;
47784;SDS011;35233;55.686;37.848;2023-03-05T00:45:31;2.28;;;1.70;;
47784;SDS011;35233;55.686;37.848;2023-03-05T00:47:57;2.15;;;1.60;;
47784;SDS011;35233;55.686;37.848;2023-03-05T00:50:23;2.03;;;1.60;;
47784;SDS011;35233;55.686;37.848;2023-03-05T00:52:49;2.20;;;1.60;;
47784;SDS011;35233;55.686;37.848;2023-03-05T00:55:16;3.10;;;1.80;;
47784;SDS011;35233;55.686;37.848;2023-03-05T00:57:42;1.73;;;1.42;;
47784;SDS011;35233;55.686;37.848;2023-03-05T01:00:08;2.20;;;1.80;;
47784;SDS011;35233;55.686;37.848;2023-03-05T01:02:35;1.92;;;1.40;;
47784;SDS011;35233;55.686;37.848;2023-03-05T01:05:00;1.73;;;1.50;;
47784;SDS011;35233;55.686;37.848;2023-03-05T01:07:26;3.13;;;1.90;;
47784;SDS011;35233;55.686;37.848;2023-03-05T01:09:51;1.92;;;1.60;;
47784;SDS011;35233;55.686;37.848;2023-03-05T01:12:17;1.60;;;1.35;;
47784;SDS011;35233;55.686;37.848;2023-03-05T01:14:42;2.10;;;1.90;;
47784;SDS011;35233;55.686;37.848;2023-03-05T01:17:08;2.22;;;1.65;;
47784;SDS011;35233;55.686;37.848;2023-03-05T01:19:33;1.55;;;1.15;;
47784;SDS011;35233;55.686;37.848;2023-03-05T01:21:59;1.52;;;1.38;;
47784;SDS011;35233;55.686;37.848;2023-03-05T01:24:24;2.22;;;1.42;;
47784;SDS011;35233;55.686;37.848;2023-03-05T01:26:50;2.17;;;1.50;;
47784;SDS011;35233;55.686;37.848;2023-03-05T01:29:15;1.80;;;1.35;;
47784;SDS011;35233;55.686;37.848;2023-03-05T01:31:41;2.00;;;1.40;;
47784;SDS011;35233;55.686;37.848;2023-03-05T01:34:06;2.67;;;1.60;;
47784;SDS011;35233;55.686;37.848;2023-03-05T01:36:32;1.98;;;1.20;;
47784;SDS011;35233;55.686;37.848;2023-03-05T01:38:57;2.28;;;1.38;;
47784;SDS011;35233;55.686;37.848;2023-03-05T01:41:23;2.47;;;1.55;;
47784;SDS011;35233;55.686;37.848;2023-03-05T01:43:48;1.60;;;1.20;;
47784;SDS011;35233;55.686;37.848;2023-03-05T01:48:49;1.17;;;1.08;;
47784;SDS011;35233;55.686;37.848;2023-03-05T01:51:23;1.33;;;1.17;;
47784;SDS011;35233;55.686;37.848;2023-03-05T01:53:51;1.30;;;1.10;;
47784;SDS011;35233;55.686;37.848;2023-03-05T01:56:19;1.63;;;1.10;;
47784;SDS011;35233;55.686;37.848;2023-03-05T01:58:45;1.48;;;1.23;;
47784;SDS011;35233;55.686;37.848;2023-03-05T02:01:11;1.38;;;0.90;;
47784;SDS011;35233;55.686;37.848;2023-03-05T02:03:37;1.70;;;1.40;;
47784;SDS011;35233;55.686;37.848;2023-03-05T02:06:03;1.13;;;1.02;;
47784;SDS011;35233;55.686;37.848;2023-03-05T02:08:29;1.30;;;1.20;;
47784;SDS011;35233;55.686;37.848;2023-03-05T02:10:55;1.73;;;1.23;;
47784;SDS011;35233;55.686;37.848;2023-03-05T02:13:24;2.28;;;1.13;;
47784;SDS011;35233;55.686;37.848;2023-03-05T02:15:52;1.98;;;1.35;;
47784;SDS011;35233;55.686;37.848;2023-03-05T02:18:19;1.50;;;1.10;;
47784;SDS011;35233;55.686;37.848;2023-03-05T02:20:49;1.65;;;1.33;;
47784;SDS011;35233;55.686;37.848;2023-03-05T02:23:21;1.25;;;0.90;;
47784;SDS011;35233;55.686;37.848;2023-03-05T02:25:49;2.13;;;1.23;;
47784;SDS011;35233;55.686;37.848;2023-03-05T02:30:43;1.42;;;1.30;;
47784;SDS011;35233;55.686;37.848;2023-03-05T02:33:08;1.50;;;1.13;;
47784;SDS011;35233;55.686;37.848;2023-03-05T02:35:34;1.08;;;1.00;;
47784;SDS011;35233;55.686;37.848;2023-03-05T02:38:00;1.45;;;1.10;;
47784;SDS011;35233;55.686;37.848;2023-03-05T02:40:26;2.58;;;1.17;;
47784;SDS011;35233;55.686;37.848;2023-03-05T02:42:52;1.33;;;1.23;;
47784;SDS011;35233;55.686;37.848;2023-03-05T02:45:17;1.10;;;0.98;;
47784;SDS011;35233;55.686;37.848;2023-03-05T02:47:43;1.65;;;1.02;;
47784;SDS011;35233;55.686;37.848;2023-03-05T02:50:10;1.30;;;1.00;;
47784;SDS011;35233;55.686;37.848;2023-03-05T02:52:36;0.90;;;0.90;;
47784;SDS011;35233;55.686;37.848;2023-03-05T02:55:02;1.27;;;1.10;;
47784;SDS011;35233;55.686;37.848;2023-03-05T02:57:28;1.40;;;1.30;;
47784;SDS011;35233;55.686;37.848;2023-03-05T02:59:54;2.55;;;0.80;;
47784;SDS011;35233;55.686;37.848;2023-03-05T03:02:19;2.78;;;1.20;;
47784;SDS011;35233;55.686;37.848;2023-03-05T03:04:45;1.85;;;1.10;;
47784;SDS011;35233;55.686;37.848;2023-03-05T03:07:11;1.35;;;1.10;;
47784;SDS011;35233;55.686;37.848;2023-03-05T03:09:37;1.42;;;1.33;;
47784;SDS011;35233;55.686;37.848;2023-03-05T03:12:04;2.03;;;1.30;;
47784;SDS011;35233;55.686;37.848;2023-03-05T03:14:35;0.88;;;0.88;;
47784;SDS011;35233;55.686;37.848;2023-03-05T03:17:06;1.92;;;0.90;;
47784;SDS011;35233;55.686;37.848;2023-03-05T03:19:33;1.60;;;1.10;;
47784;SDS011;35233;55.686;37.848;2023-03-05T03:21:59;1.33;;;1.20;;
47784;SDS011;35233;55.686;37.848;2023-03-05T03:24:25;1.23;;;1.02;;
47784;SDS011;35233;55.686;37.848;2023-03-05T03:26:50;1.70;;;0.98;;
47784;SDS011;35233;55.686;37.848;2023-03-05T03:29:16;1.55;;;1.17;;
47784;SDS011;35233;55.686;37.848;2023-03-05T03:31:42;1.10;;;1.00;;
47784;SDS011;35233;55.686;37.848;2023-03-05T03:34:10;1.10;;;1.00;;
47784;SDS011;35233;55.686;37.848;2023-03-05T03:36:39;1.77;;;1.23;;
47784;SDS011;35233;55.686;37.848;2023-03-05T03:39:06;0.82;;;0.80;;
47784;SDS011;35233;55.686;37.848;2023-03-05T03:41:34;1.65;;;1.15;;
47784;SDS011;35233;55.686;37.848;2023-03-05T03:44:01;2.20;;;1.15;;
47784;SDS011;35233;55.686;37.848;2023-03-05T03:46:27;2.25;;;1.25;;
47784;SDS011;35233;55.686;37.848;2023-03-05T03:48:53;1.23;;;1.08;;
47784;SDS011;35233;55.686;37.848;2023-03-05T03:51:18;1.35;;;1.00;;
47784;SDS011;35233;55.686;37.848;2023-03-05T03:53:44;1.92;;;1.20;;
47784;SDS011;35233;55.686;37.848;2023-03-05T03:56:10;0.90;;;0.90;;
47784;SDS011;35233;55.686;37.848;2023-03-05T03:58:35;1.23;;;1.02;;
47784;SDS011;35233;55.686;37.848;2023-03-05T04:01:01;1.98;;;1.17;;
47784;SDS011;35233;55.686;37.848;2023-03-05T04:03:26;1.60;;;1.30;;
47784;SDS011;35233;55.686;37.848;2023-03-05T04:05:51;1.38;;;1.15;;
47784;SDS011;35233;55.686;37.848;2023-03-05T04:08:17;1.17;;;0.95;;
47784;SDS011;35233;55.686;37.848;2023-03-05T04:10:43;1.13;;;1.00;;
47784;SDS011;35233;55.686;37.848;2023-03-05T04:13:08;1.67;;;0.98;;
47784;SDS011;35233;55.686;37.848;2023-03-05T04:15:34;1.08;;;1.05;;
47784;SDS011;35233;55.686;37.848;2023-03-05T04:17:59;1.05;;;0.90;;
47784;SDS011;35233;55.686;37.848;2023-03-05T04:20:25;1.35;;;1.15;;
47784;SDS011;35233;55.686;37.848;2023-03-05T04:22:50;1.52;;;0.93;;
47784;SDS011;35233;55.686;37.848;2023-03-05T04:25:16;1.65;;;1.13;;
47784;SDS011;35233;55.686;37.848;2023-03-05T04:27:42;1.55;;;1.17;;
47784;SDS011;35233;55.686;37.848;2023-03-05T04:30:08;1.58;;;1.02;;
47784;SDS011;35233;55.686;37.848;2023-03-05T04:32:35;1.73;;;1.00;;
47784;SDS011;35233;55.686;37.848;2023-03-05T04:35:01;1.27;;;0.90;;
47784;SDS011;35233;55.686;37.848;2023-03-05T04:37:26;1.27;;;1.00;;
47784;SDS011;35233;55.686;37.848;2023-03-05T04:39:52;1.25;;;1.02;;
47784;SDS011;35233;55.686;37.848;2023-03-05T04:42:18;2.00;;;1.15;;
47784;SDS011;35233;55.686;37.848;2023-03-05T04:44:45;1.65;;;1.20;;
47784;SDS011;35233;55.686;37.848;2023-03-05T04:47:12;1.67;;;1.10;;
47784;SDS011;35233;55.686;37.848;2023-03-05T04:49:37;1.60;;;1.00;;
47784;SDS011;35233;55.686;37.848;2023-03-05T04:52:03;1.45;;;1.05;;
47784;SDS011;35233;55.686;37.848;2023-03-05T04:54:29;1.67;;;1.13;;
47784;SDS011;35233;55.686;37.848;2023-03-05T04:56:54;1.30;;;1.20;;
47784;SDS011;35233;55.686;37.848;2023-03-05T04:59:20;1.80;;;1.20;;
47784;SDS011;35233;55.686;37.848;2023-03-05T05:01:45;1.38;;;1.02;;
47784;SDS011;35233;55.686;37.848;2023-03-05T05:04:11;1.42;;;1.02;;
47784;SDS011;35233;55.686;37.848;2023-03-05T05:06:36;1.35;;;1.25;;
47784;SDS011;35233;55.686;37.848;2023-03-05T05:09:02;1.25;;;1.10;;
47784;SDS011;35233;55.686;37.848;2023-03-05T05:11:27;1.67;;;1.20;;
47784;SDS011;35233;55.686;37.848;2023-03-05T05:13:53;2.85;;;1.20;;
47784;SDS011;35233;55.686;37.848;2023-03-05T05:16:18;1.45;;;1.10;;
47784;SDS011;35233;55.686;37.848;2023-03-05T05:18:44;1.95;;;1.05;;
47784;SDS011;35233;55.686;37.848;2023-03-05T05:21:11;1.77;;;0.90;;
47784;SDS011;35233;55.686;37.848;2023-03-05T05:23:37;2.28;;;1.27;;
47784;SDS011;35233;55.686;37.848;2023-03-05T05:26:04;1.52;;;1.10;;
47784;SDS011;35233;55.686;37.848;2023-03-05T05:28:31;0.90;;;0.90;;
47784;SDS011;35233;55.686;37.848;2023-03-05T05:30:57;1.63;;;1.42;;
47784;SDS011;35233;55.686;37.848;2023-03-05T05:33:23;0.98;;;0.88;;
47784;SDS011;35233;55.686;37.848;2023-03-05T05:35:49;2.05;;;1.20;;
47784;SDS011;35233;55.686;37.848;2023-03-05T05:38:15;0.75;;;0.75;;
47784;SDS011;35233;55.686;37.848;2023-03-05T05:40:41;1.40;;;1.05;;
47784;SDS011;35233;55.686;37.848;2023-03-05T05:43:06;2.13;;;1.35;;
47784;SDS011;35233;55.686;37.848;2023-03-05T05:45:32;1.45;;;1.08;;
47784;SDS011;35233;55.686;37.848;2023-03-05T05:47:58;1.40;;;0.98;;
47784;SDS011;35233;55.686;37.848;2023-03-05T05:50:23;1.33;;;0.90;;
47784;SDS011;35233;55.686;37.848;2023-03-05T05:52:52;1.13;;;1.00;;
47784;SDS011;35233;55.686;37.848;2023-03-05T05:55:17;1.23;;;1.10;;
47784;SDS011;35233;55.686;37.848;2023-03-05T05:57:43;1.65;;;1.17;;
47784;SDS011;35233;55.686;37.848;2023-03-05T06:00:09;1.70;;;1.15;;
47784;SDS011;35233;55.686;37.848;2023-03-05T06:02:38;1.70;;;1.05;;
47784;SDS011;35233;55.686;37.848;2023-03-05T06:05:05;1.20;;;1.10;;
47784;SDS011;35233;55.686;37.848;2023-03-05T06:07:33;1.40;;;1.10;;
47784;SDS011;35233;55.686;37.848;2023-03-05T06:09:58;0.73;;;0.68;;
47784;SDS011;35233;55.686;37.848;2023-03-05T06:12:24;2.47;;;1.00;;
47784;SDS011;35233;55.686;37.848;2023-03-05T06:14:49;0.98;;;0.88;;
47784;SDS011;35233;55.686;37.848;2023-03-05T06:17:15;1.63;;;1.02;;
47784;SDS011;35233;55.686;37.848;2023-03-05T06:19:40;1.00;;;0.90;;
47784;SDS011;35233;55.686;37.848;2023-03-05T06:22:06;0.90;;;0.90;;
47784;SDS011;35233;55.686;37.848;2023-03-05T06:24:31;1.38;;;1.00;;
47784;SDS011;35233;55.686;37.848;2023-03-05T06:26:57;0.82;;;0.82;;
47784;SDS011;35233;55.686;37.848;2023-03-05T06:29:22;1.60;;;1.00;;
47784;SDS011;35233;55.686;37.848;2023-03-05T06:31:47;1.38;;;1.05;;
47784;SDS011;35233;55.686;37.848;2023-03-05T06:34:13;0.93;;;0.82;;
47784;SDS011;35233;55.686;37.848;2023-03-05T06:36:38;1.48;;;1.00;;
47784;SDS011;35233;55.686;37.848;2023-03-05T06:39:04;1.55;;;1.02;;
47784;SDS011;35233;55.686;37.848;2023-03-05T06:41:30;1.13;;;0.85;;
47784;SDS011;35233;55.686;37.848;2023-03-05T06:43:57;1.25;;;0.90;;
47784;SDS011;35233;55.686;37.848;2023-03-05T06:46:28;1.05;;;0.90;;
47784;SDS011;35233;55.686;37.848;2023-03-05T06:48:57;1.23;;;1.13;;
47784;SDS011;35233;55.686;37.848;2023-03-05T06:51:25;1.08;;;0.98;;
47784;SDS011;35233;55.686;37.848;2023-03-05T06:53:53;1.08;;;0.90;;
47784;SDS011;35233;55.686;37.848;2023-03-05T06:56:19;2.40;;;1.02;;
47784;SDS011;35233;55.686;37.848;2023-03-05T06:58:46;1.95;;;1.20;;
47784;SDS011;35233;55.686;37.848;2023-03-05T07:01:13;1.02;;;0.93;;
47784;SDS011;35233;55.686;37.848;2023-03-05T07:03:39;1.10;;;1.00;;
47784;SDS011;35233;55.686;37.848;2023-03-05T07:06:06;0.95;;;0.85;;
47784;SDS011;35233;55.686;37.848;2023-03-05T07:08:34;1.35;;;0.90;;
47784;SDS011;35233;55.686;37.848;2023-03-05T07:11:00;1.63;;;1.10;;
47784;SDS011;35233;55.686;37.848;2023-03-05T07:13:26;2.10;;;1.25;;
47784;SDS011;35233;55.686;37.848;2023-03-05T07:15:52;1.58;;;1.00;;
47784;SDS011;35233;55.686;37.848;2023-03-05T07:18:19;1.92;;;1.23;;
47784;SDS011;35233;55.686;37.848;2023-03-05T07:20:45;1.10;;;0.85;;
47784;SDS011;35233;55.686;37.848;2023-03-05T07:23:11;2.13;;;0.88;;
47784;SDS011;35233;55.686;37.848;2023-03-05T07:25:37;1.67;;;1.05;;
47784;SDS011;35233;55.686;37.848;2023-03-05T07:28:04;1.83;;;1.17;;
47784;SDS011;35233;55.686;37.848;2023-03-05T07:30:31;1.23;;;1.13;;
47784;SDS011;35233;55.686;37.848;2023-03-05T07:32:57;0.85;;;0.85;;
47784;SDS011;35233;55.686;37.848;2023-03-05T07:35:23;1.27;;;0.95;;
47784;SDS011;35233;55.686;37.848;2023-03-05T07:37:49;2.53;;;1.30;;
47784;SDS011;35233;55.686;37.848;2023-03-05T07:40:15;1.73;;;1.20;;
47784;SDS011;35233;55.686;37.848;2023-03-05T07:42:42;3.58;;;1.30;;
47784;SDS011;35233;55.686;37.848;2023-03-05T07:45:08;3.90;;;1.50;;
47784;SDS011;35233;55.686;37.848;2023-03-05T07:47:34;1.95;;;1.30;;
47784;SDS011;35233;55.686;37.848;2023-03-05T07:50:00;1.60;;;1.20;;
47784;SDS011;35233;55.686;37.848;2023-03-05T07:52:26;2.20;;;1.10;;
47784;SDS011;35233;55.686;37.848;2023-03-05T07:54:51;3.28;;;1.85;;
47784;SDS011;35233;55.686;37.848;2023-03-05T07:57:17;1.08;;;0.95;;
47784;SDS011;35233;55.686;37.848;2023-03-05T07:59:43;1.98;;;1.50;;
47784;SDS011;35233;55.686;37.848;2023-03-05T08:02:12;1.95;;;1.30;;
47784;SDS011;35233;55.686;37.848;2023-03-05T08:04:38;1.67;;;1.20;;
47784;SDS011;35233;55.686;37.848;2023-03-05T08:07:06;1.40;;;1.05;;
47784;SDS011;35233;55.686;37.848;2023-03-05T08:09:31;1.88;;;1.10;;
47784;SDS011;35233;55.686;37.848;2023-03-05T08:11:57;1.63;;;1.20;;
47784;SDS011;35233;55.686;37.848;2023-03-05T08:14:22;1.77;;;1.10;;
47784;SDS011;35233;55.686;37.848;2023-03-05T08:16:48;2.65;;;1.15;;
47784;SDS011;35233;55.686;37.848;2023-03-05T08:19:17;2.72;;;1.65;;
47784;SDS011;35233;55.686;37.848;2023-03-05T08:21:44;2.03;;;1.48;;
47784;SDS011;35233;55.686;37.848;2023-03-05T08:24:10;2.20;;;1.25;;
47784;SDS011;35233;55.686;37.848;2023-03-05T08:26:36;5.07;;;1.60;;
47784;SDS011;35233;55.686;37.848;2023-03-05T08:29:02;8.02;;;2.45;;
47784;SDS011;35233;55.686;37.848;2023-03-05T08:31:29;6.18;;;2.30;;
47784;SDS011;35233;55.686;37.848;2023-03-05T08:33:56;12.45;;;2.58;;
47784;SDS011;35233;55.686;37.848;2023-03-05T08:36:23;5.95;;;2.15;;
47784;SDS011;35233;55.686;37.848;2023-03-05T08:38:49;5.30;;;3.30;;
47784;SDS011;35233;55.686;37.848;2023-03-05T08:41:15;5.93;;;3.70;;
47784;SDS011;35233;55.686;37.848;2023-03-05T08:43:42;5.60;;;3.63;;
47784;SDS011;35233;55.686;37.848;2023-03-05T08:46:08;5.35;;;3.00;;
47784;SDS011;35233;55.686;37.848;2023-03-05T08:48:36;7.07;;;2.60;;
47784;SDS011;35233;55.686;37.848;2023-03-05T08:51:06;4.57;;;2.67;;
47784;SDS011;35233;55.686;37.848;2023-03-05T08:53:33;6.35;;;2.63;;
47784;SDS011;35233;55.686;37.848;2023-03-05T08:55:58;4.68;;;2.50;;
47784;SDS011;35233;55.686;37.848;2023-03-05T08:58:24;8.13;;;2.55;;
47784;SDS011;35233;55.686;37.848;2023-03-05T09:00:50;3.53;;;2.20;;
47784;SDS011;35233;55.686;37.848;2023-03-05T09:03:16;5.80;;;2.30;;
47784;SDS011;35233;55.686;37.848;2023-03-05T09:05:41;3.22;;;2.08;;
47784;SDS011;35233;55.686;37.848;2023-03-05T09:08:07;9.40;;;2.92;;
47784;SDS011;35233;55.686;37.848;2023-03-05T09:10:32;4.03;;;2.53;;
47784;SDS011;35233;55.686;37.848;2023-03-05T09:12:58;4.05;;;2.08;;
47784;SDS011;35233;55.686;37.848;2023-03-05T09:15:23;3.92;;;2.22;;
47784;SDS011;35233;55.686;37.848;2023-03-05T09:17:49;3.35;;;2.10;;
47784;SDS011;35233;55.686;37.848;2023-03-05T09:20:14;2.95;;;2.00;;
47784;SDS011;35233;55.686;37.848;2023-03-05T09:22:40;2.90;;;2.20;;
47784;SDS011;35233;55.686;37.848;2023-03-05T09:25:07;4.05;;;2.40;;
47784;SDS011;35233;55.686;37.848;2023-03-05T09:27:34;5.05;;;2.28;;
47784;SDS011;35233;55.686;37.848;2023-03-05T09:30:00;4.57;;;2.53;;
47784;SDS011;35233;55.686;37.848;2023-03-05T09:32:26;3.60;;;2.50;;
47784;SDS011;35233;55.686;37.848;2023-03-05T09:34:51;3.38;;;2.40;;
47784;SDS011;35233;55.686;37.848;2023-03-05T09:37:17;3.55;;;2.30;;
47784;SDS011;35233;55.686;37.848;2023-03-05T09:39:42;3.67;;;2.53;;
47784;SDS011;35233;55.686;37.848;2023-03-05T09:45:54;4.32;;;2.50;;
47784;SDS011;35233;55.686;37.848;2023-03-05T09:51:03;4.00;;;2.22;;
47784;SDS011;35233;55.686;37.848;2023-03-05T09:53:48;3.22;;;2.17;;
47784;SDS011;35233;55.686;37.848;2023-03-05T09:56:22;3.58;;;2.20;;
47784;SDS011;35233;55.686;37.848;2023-03-05T09:58:54;2.92;;;1.95;;
47784;SDS011;35233;55.686;37.848;2023-03-05T10:01:44;2.75;;;2.10;;
47784;SDS011;35233;55.686;37.848;2023-03-05T10:04:23;2.75;;;2.20;;
47784;SDS011;35233;55.686;37.848;2023-03-05T10:09:43;3.15;;;2.28;;
47784;SDS011;35233;55.686;37.848;2023-03-05T10:12:17;3.60;;;2.22;;
47784;SDS011;35233;55.686;37.848;2023-03-05T10:14:52;2.67;;;2.00;;
47784;SDS011;35233;55.686;37.848;2023-03-05T10:28:36;4.25;;;2.35;;
47784;SDS011;35233;55.686;37.848;2023-03-05T10:44:56;3.42;;;2.47;;
47784;SDS011;35233;55.686;37.848;2023-03-05T10:50:36;4.05;;;2.58;;
47784;SDS011;35233;55.686;37.848;2023-03-05T10:53:06;4.05;;;2.55;;
47784;SDS011;35233;55.686;37.848;2023-03-05T10:55:44;3.53;;;2.53;;
47784;SDS011;35233;55.686;37.848;2023-03-05T10:58:14;3.15;;;2.55;;
47784;SDS011;35233;55.686;37.848;2023-03-05T11:00:56;3.58;;;2.72;;
47784;SDS011;35233;55.686;37.848;2023-03-05T11:03:36;4.07;;;2.75;;
47784;SDS011;35233;55.686;37.848;2023-03-05T11:06:30;5.13;;;2.90;;
47784;SDS011;35233;55.686;37.848;2023-03-05T11:09:18;5.82;;;3.95;;
47784;SDS011;35233;55.686;37.848;2023-03-05T11:15:01;6.50;;;4.45;;
47784;SDS011;35233;55.686;37.848;2023-03-05T11:17:32;6.38;;;4.28;;
47784;SDS011;35233;55.686;37.848;2023-03-05T11:25:50;7.10;;;3.80;;
47784;SDS011;35233;55.686;37.848;2023-03-05T11:28:29;7.30;;;3.63;;
47784;SDS011;35233;55.686;37.848;2023-03-05T11:31:07;6.68;;;4.18;;
47784;SDS011;35233;55.686;37.848;2023-03-05T11:33:39;5.40;;;4.13;;
47784;SDS011;35233;55.686;37.848;2023-03-05T11:36:25;5.13;;;3.80;;
47784;SDS011;35233;55.686;37.848;2023-03-05T11:38:55;5.75;;;3.85;;
47784;SDS011;35233;55.686;37.848;2023-03-05T11:41:28;7.65;;;3.60;;
47784;SDS011;35233;55.686;37.848;2023-03-05T11:43:57;6.55;;;3.65;;
47784;SDS011;35233;55.686;37.848;2023-03-05T11:46:27;5.05;;;3.53;;
47784;SDS011;35233;55.686;37.848;2023-03-05T11:48:54;6.05;;;3.70;;
47784;SDS011;35233;55.686;37.848;2023-03-05T11:51:39;8.55;;;3.67;;
47784;SDS011;35233;55.686;37.848;2023-03-05T11:54:11;4.93;;;3.55;;
47784;SDS011;35233;55.686;37.848;2023-03-05T11:56:44;5.60;;;3.40;;
47784;SDS011;35233;55.686;37.848;2023-03-05T11:59:16;6.95;;;3.55;;
47784;SDS011;35233;55.686;37.848;2023-03-05T12:01:50;5.80;;;3.40;;
47784;SDS011;35233;55.686;37.848;2023-03-05T12:04:17;5.13;;;3.60;;
47784;SDS011;35233;55.686;37.848;2023-03-05T12:06:51;4.65;;;3.40;;
47784;SDS011;35233;55.686;37.848;2023-03-05T12:14:47;5.47;;;3.72;;
47784;SDS011;35233;55.686;37.848;2023-03-05T12:20:14;6.88;;;3.70;;
47784;SDS011;35233;55.686;37.848;2023-03-05T12:22:50;5.22;;;3.60;;
47784;SDS011;35233;55.686;37.848;2023-03-05T12:26:01;4.38;;;3.25;;
47784;SDS011;35233;55.686;37.848;2023-03-05T12:28:16;4.63;;;3.35;;
47784;SDS011;35233;55.686;37.848;2023-03-05T12:31:03;5.40;;;3.60;;
47784;SDS011;35233;55.686;37.848;2023-03-05T12:33:48;5.32;;;3.30;;
47784;SDS011;35233;55.686;37.848;2023-03-05T12:38:46;4.40;;;3.50;;
47784;SDS011;35233;55.686;37.848;2023-03-05T12:46:30;5.00;;;3.30;;
47784;SDS011;35233;55.686;37.848;2023-03-05T12:51:51;4.75;;;3.20;;
47784;SDS011;35233;55.686;37.848;2023-03-05T12:56:57;4.13;;;2.88;;
47784;SDS011;35233;55.686;37.848;2023-03-05T13:02:42;4.32;;;2.97;;
47784;SDS011;35233;55.686;37.848;2023-03-05T13:05:17;4.55;;;3.22;;
47784;SDS011;35233;55.686;37.848;2023-03-05T13:07:48;3.60;;;2.90;;
47784;SDS011;35233;55.686;37.848;2023-03-05T13:10:24;4.68;;;3.05;;
47784;SDS011;35233;55.686;37.848;2023-03-05T13:12:54;3.50;;;2.75;;
47784;SDS011;35233;55.686;37.848;2023-03-05T13:15:22;4.65;;;3.22;;
47784;SDS011;35233;55.686;37.848;2023-03-05T13:17:56;3.70;;;3.03;;
47784;SDS011;35233;55.686;37.848;2023-03-05T13:20:25;4.75;;;3.05;;
47784;SDS011;35233;55.686;37.848;2023-03-05T13:25:44;4.57;;;3.28;;
47784;SDS011;35233;55.686;37.848;2023-03-05T13:28:22;4.28;;;3.17;;
47784;SDS011;35233;55.686;37.848;2023-03-05T13:30:51;4.00;;;2.97;;
47784;SDS011;35233;55.686;37.848;2023-03-05T13:33:22;4.03;;;2.92;;
47784;SDS011;35233;55.686;37.848;2023-03-05T13:35:51;4.18;;;3.05;;
47784;SDS011;35233;55.686;37.848;2023-03-05T13:38:35;3.75;;;2.75;;
47784;SDS011;35233;55.686;37.848;2023-03-05T13:41:05;2.95;;;2.50;;
47784;SDS011;35233;55.686;37.848;2023-03-05T13:43:52;6.10;;;3.20;;
47784;SDS011;35233;55.686;37.848;2023-03-05T13:46:23;4.15;;;2.80;;
47784;SDS011;35233;55.686;37.848;2023-03-05T13:48:49;4.57;;;2.80;;
47784;SDS011;35233;55.686;37.848;2023-03-05T13:51:15;4.18;;;3.00;;
47784;SDS011;35233;55.686;37.848;2023-03-05T13:53:41;3.42;;;2.60;;
47784;SDS011;35233;55.686;37.848;2023-03-05T13:56:11;4.00;;;2.92;;
47784;SDS011;35233;55.686;37.848;2023-03-05T13:58:42;3.47;;;2.73;;
47784;SDS011;35233;55.686;37.848;2023-03-05T14:01:31;4.38;;;2.83;;
47784;SDS011;35233;55.686;37.848;2023-03-05T14:06:53;4.07;;;2.63;;
47784;SDS011;35233;55.686;37.848;2023-03-05T14:09:29;3.78;;;2.60;;
47784;SDS011;35233;55.686;37.848;2023-03-05T14:12:00;4.40;;;3.03;;
47784;SDS011;35233;55.686;37.848;2023-03-05T14:14:30;4.10;;;2.63;;
47784;SDS011;35233;55.686;37.848;2023-03-05T14:22:45;4.85;;;2.70;;
47784;SDS011;35233;55.686;37.848;2023-03-05T14:28:20;3.50;;;2.42;;
47784;SDS011;35233;55.686;37.848;2023-03-05T14:30:52;3.75;;;2.63;;
47784;SDS011;35233;55.686;37.848;2023-03-05T14:33:29;5.20;;;2.67;;
47784;SDS011;35233;55.686;37.848;2023-03-05T14:35:57;3.10;;;2.40;;
47784;SDS011;35233;55.686;37.848;2023-03-05T14:38:30;4.97;;;2.63;;
47784;SDS011;35233;55.686;37.848;2023-03-05T14:41:17;3.17;;;2.33;;
47784;SDS011;35233;55.686;37.848;2023-03-05T14:44:07;3.30;;;2.53;;
47784;SDS011;35233;55.686;37.848;2023-03-05T14:46:37;3.38;;;2.53;;
47784;SDS011;35233;55.686;37.848;2023-03-05T14:49:03;3.90;;;2.78;;
47784;SDS011;35233;55.686;37.848;2023-03-05T14:51:28;4.47;;;3.05;;
47784;SDS011;35233;55.686;37.848;2023-03-05T14:54:02;4.32;;;2.85;;
47784;SDS011;35233;55.686;37.848;2023-03-05T14:56:28;4.53;;;3.03;;
47784;SDS011;35233;55.686;37.848;2023-03-05T14:58:54;4.18;;;3.10;;
47784;SDS011;35233;55.686;37.848;2023-03-05T15:01:21;4.07;;;2.97;;
47784;SDS011;35233;55.686;37.848;2023-03-05T15:03:48;4.97;;;3.03;;
47784;SDS011;35233;55.686;37.848;2023-03-05T15:06:19;5.07;;;3.20;;
47784;SDS011;35233;55.686;37.848;2023-03-05T15:08:48;4.55;;;3.20;;
47784;SDS011;35233;55.686;37.848;2023-03-05T15:11:14;4.60;;;3.40;;
47784;SDS011;35233;55.686;37.848;2023-03-05T15:13:39;6.10;;;4.10;;
47784;SDS011;35233;55.686;37.848;2023-03-05T15:16:05;5.10;;;3.40;;
47784;SDS011;35233;55.686;37.848;2023-03-05T15:18:31;5.15;;;3.45;;
47784;SDS011;35233;55.686;37.848;2023-03-05T15:20:57;5.15;;;3.35;;
47784;SDS011;35233;55.686;37.848;2023-03-05T15:23:23;5.28;;;3.70;;
47784;SDS011;35233;55.686;37.848;2023-03-05T15:25:48;5.70;;;3.85;;
47784;SDS011;35233;55.686;37.848;2023-03-05T15:28:14;7.97;;;4.07;;
47784;SDS011;35233;55.686;37.848;2023-03-05T15:30:42;7.45;;;4.20;;
47784;SDS011;35233;55.686;37.848;2023-03-05T15:33:10;6.18;;;3.95;;
47784;SDS011;35233;55.686;37.848;2023-03-05T15:35:38;6.28;;;3.95;;
47784;SDS011;35233;55.686;37.848;2023-03-05T15:38:04;6.05;;;4.15;;
47784;SDS011;35233;55.686;37.848;2023-03-05T15:40:30;6.75;;;3.97;;
47784;SDS011;35233;55.686;37.848;2023-03-05T15:42:57;6.45;;;4.15;;
47784;SDS011;35233;55.686;37.848;2023-03-05T15:45:24;5.70;;;4.00;;
47784;SDS011;35233;55.686;37.848;2023-03-05T15:47:50;7.20;;;4.43;;
47784;SDS011;35233;55.686;37.848;2023-03-05T15:50:16;6.75;;;4.38;;
47784;SDS011;35233;55.686;37.848;2023-03-05T15:52:43;9.85;;;4.10;;
47784;SDS011;35233;55.686;37.848;2023-03-05T15:55:09;6.00;;;4.00;;
47784;SDS011;35233;55.686;37.848;2023-03-05T15:57:36;6.93;;;4.07;;
47784;SDS011;35233;55.686;37.848;2023-03-05T16:00:06;9.65;;;3.88;;
47784;SDS011;35233;55.686;37.848;2023-03-05T16:02:32;5.90;;;3.97;;
47784;SDS011;35233;55.686;37.848;2023-03-05T16:04:58;8.63;;;3.95;;
47784;SDS011;35233;55.686;37.848;2023-03-05T16:07:24;5.65;;;3.55;;
47784;SDS011;35233;55.686;37.848;2023-03-05T16:09:54;6.07;;;4.07;;